Time;durP1;ratioP1;P1;durP2;ratioP2;P2;SDS_P1;SDS_P2;PMS_P1;PMS_P2;Temp;Humidity;BMP_temperature;BMP_pressure;BME280_temperature;BME280_humidity;BME280_pressure;Samples;Min_cycle;Max_cycle;Signal;HPM_P1;HPM_P2
2024/04/09 00:02:19;;;;;;;7.30;5.20;;;;;;;13.68;92.37;98611.53;109640;1249;60111;-77
2024/04/09 00:04:45;;;;;;;8.50;6.00;;;;;;;13.62;92.44;98608.44;109694;1250;60325;-79
2024/04/09 00:07:11;;;;;;;7.00;5.10;;;;;;;13.60;92.14;98608.61;109656;1250;60208;-80
2024/04/09 00:09:42;;;;;;;8.30;5.70;;;;;;;13.57;92.80;98606.56;109667;1251;59754;-78
2024/04/09 00:12:10;;;;;;;7.00;5.80;;;;;;;13.54;92.93;98602.85;109651;1250;59790;-79
2024/04/09 00:14:37;;;;;;;7.10;5.40;;;;;;;13.52;93.15;98601.48;109693;1251;67743;-76
2024/04/09 00:17:05;;;;;;;8.90;5.20;;;;;;;13.47;94.12;98602.19;109669;1251;59968;-78
2024/04/09 00:19:31;;;;;;;7.70;5.00;;;;;;;13.44;94.52;98600.73;109641;1251;62520;-78
2024/04/09 00:21:59;;;;;;;7.10;4.80;;;;;;;13.42;94.64;98600.13;109684;1250;59808;-75
2024/04/09 00:24:25;;;;;;;5.80;5.00;;;;;;;13.42;94.99;98601.76;109670;1250;59806;-77
2024/04/09 00:26:52;;;;;;;6.50;4.60;;;;;;;13.41;94.96;98602.75;109661;1251;68054;-78
2024/04/09 00:29:19;;;;;;;6.10;4.80;;;;;;;13.41;94.78;98602.04;109669;1251;59881;-77
2024/04/09 00:31:45;;;;;;;6.20;4.80;;;;;;;13.39;94.56;98598.58;109672;1249;64355;-78
2024/04/09 00:34:12;;;;;;;7.60;4.20;;;;;;;13.39;94.89;98593.25;109633;1251;59846;-77
2024/04/09 00:36:40;;;;;;;7.50;4.70;;;;;;;13.38;95.01;98592.27;109621;1250;59753;-78
2024/04/09 00:39:18;;;;;;;6.40;4.20;;;;;;;13.36;95.34;98595.13;109655;1251;67663;-78
2024/04/09 00:41:45;;;;;;;6.80;4.30;;;;;;;13.33;95.66;98593.02;109675;1249;59784;-78
2024/04/09 00:44:11;;;;;;;6.20;4.10;;;;;;;13.32;95.78;98589.04;109649;1250;72554;-78
2024/04/09 00:46:38;;;;;;;6.10;4.80;;;;;;;13.29;96.09;98590.19;109347;1250;59823;-78
2024/04/09 00:49:04;;;;;;;6.80;4.70;;;;;;;13.26;96.11;98591.70;109678;1251;59833;-77
2024/04/09 00:51:32;;;;;;;7.00;4.20;;;;;;;13.23;96.29;98595.50;109667;1249;59820;-77
2024/04/09 00:53:58;;;;;;;7.50;4.80;;;;;;;13.20;96.68;98594.97;109672;1249;60628;-77
2024/04/09 00:56:26;;;;;;;5.10;4.50;;;;;;;13.18;96.75;98593.72;109671;1250;65078;-78
2024/04/09 00:58:53;;;;;;;5.50;4.30;;;;;;;13.15;96.97;98590.07;109619;1250;59754;-78
2024/04/09 01:01:19;;;;;;;6.00;4.40;;;;;;;13.11;97.46;98593.39;109690;1250;59881;-77
2024/04/09 01:03:48;;;;;;;6.30;4.40;;;;;;;13.07;97.26;98594.29;109632;1251;59889;-76
2024/04/09 01:06:14;;;;;;;4.70;4.00;;;;;;;13.04;97.21;98596.02;109647;1251;59851;-77
2024/04/09 01:08:41;;;;;;;6.40;4.40;;;;;;;12.99;97.01;98591.62;109659;1251;65303;-77
2024/04/09 01:11:07;;;;;;;5.80;4.20;;;;;;;12.93;97.29;98591.36;109649;1250;59819;-77
2024/04/09 01:13:36;;;;;;;7.20;4.30;;;;;;;12.90;97.93;98593.60;109630;1250;59945;-78
2024/04/09 01:16:03;;;;;;;6.50;4.50;;;;;;;12.86;98.19;98595.90;109647;1250;65415;-77
2024/04/09 01:18:29;;;;;;;8.80;4.70;;;;;;;12.81;98.78;98592.03;109644;1250;60039;-77
2024/04/09 01:20:55;;;;;;;7.20;4.40;;;;;;;12.75;99.35;98596.94;109719;1250;59829;-77
2024/04/09 01:23:22;;;;;;;7.00;5.20;;;;;;;12.69;99.60;98596.70;109646;1250;59787;-78
2024/04/09 01:25:48;;;;;;;5.20;4.30;;;;;;;12.63;100.00;98593.66;109657;1250;59852;-78
2024/04/09 01:28:14;;;;;;;7.60;4.70;;;;;;;12.60;100.00;98593.91;109689;1250;60133;-78
2024/04/09 01:30:41;;;;;;;6.60;4.00;;;;;;;12.59;100.00;98594.02;109698;1250;60104;-78
2024/04/09 01:33:07;;;;;;;7.60;4.90;;;;;;;12.57;100.00;98594.74;109652;1249;60240;-78
2024/04/09 01:35:33;;;;;;;9.10;4.70;;;;;;;12.52;100.00;98597.77;109650;1250;59876;-78
2024/04/09 01:38:00;;;;;;;5.90;3.80;;;;;;;12.47;100.00;98594.20;109685;1251;59794;-78
2024/04/09 01:40:26;;;;;;;5.30;4.30;;;;;;;12.45;100.00;98596.77;109670;1249;59817;-77
2024/04/09 01:42:52;;;;;;;5.40;4.20;;;;;;;12.42;100.00;98593.05;109704;1250;59901;-79
2024/04/09 01:45:19;;;;;;;7.90;4.60;;;;;;;12.39;100.00;98593.86;109676;1250;59859;-78
2024/04/09 01:47:45;;;;;;;6.70;4.80;;;;;;;12.36;100.00;98593.19;109624;1250;59748;-77
2024/04/09 01:50:12;;;;;;;8.00;4.90;;;;;;;12.32;100.00;98595.10;109667;1249;60120;-77
2024/04/09 01:52:40;;;;;;;8.60;4.40;;;;;;;12.28;100.00;98596.85;109679;1250;59851;-77
2024/04/09 01:55:07;;;;;;;8.90;4.90;;;;;;;12.22;100.00;98595.02;109670;1250;59810;-78
2024/04/09 01:57:34;;;;;;;6.90;4.40;;;;;;;12.22;100.00;98591.45;109649;1250;64152;-78
2024/04/09 02:00:11;;;;;;;4.50;3.70;;;;;;;12.21;100.00;98592.59;109642;1251;59810;-79
2024/04/09 02:02:53;;;;;;;6.10;4.60;;;;;;;12.18;100.00;98595.55;109230;1254;59952;-78
2024/04/09 02:05:20;;;;;;;7.10;4.80;;;;;;;12.13;100.00;98595.90;109214;1256;65630;-78
2024/04/09 02:07:47;;;;;;;9.50;4.60;;;;;;;12.08;100.00;98590.05;109257;1256;60199;-78
2024/04/09 02:10:14;;;;;;;7.80;4.40;;;;;;;12.01;100.00;98587.58;109061;1255;62772;-77
2024/04/09 02:12:41;;;;;;;7.10;4.80;;;;;;;11.93;100.00;98590.76;109237;1255;59891;-77
2024/04/09 02:15:07;;;;;;;6.40;5.00;;;;;;;11.87;100.00;98587.09;109243;1255;60210;-78
2024/04/09 02:17:34;;;;;;;8.00;4.70;;;;;;;11.87;100.00;98585.85;109234;1256;59922;-77
2024/04/09 02:20:00;;;;;;;10.20;4.80;;;;;;;11.86;100.00;98584.39;109285;1254;60043;-78
2024/04/09 02:22:28;;;;;;;8.30;4.40;;;;;;;11.81;100.00;98582.61;109273;1255;64107;-78
2024/04/09 02:24:55;;;;;;;7.70;4.80;;;;;;;11.77;100.00;98583.80;109250;1256;59820;-79
2024/04/09 02:27:21;;;;;;;8.40;5.40;;;;;;;11.74;100.00;98573.92;109300;1254;59788;-78
2024/04/09 02:29:48;;;;;;;5.90;4.50;;;;;;;11.70;100.00;98575.25;109237;1256;60374;-78
2024/04/09 02:32:14;;;;;;;8.50;5.10;;;;;;;11.65;100.00;98579.90;109262;1256;59998;-77
2024/04/09 02:34:40;;;;;;;7.80;5.20;;;;;;;11.61;100.00;98583.39;109401;1250;59876;-77
2024/04/09 02:37:07;;;;;;;7.30;4.70;;;;;;;11.60;100.00;98585.11;109686;1249;59839;-76
2024/04/09 02:39:33;;;;;;;9.20;5.20;;;;;;;11.56;100.00;98580.24;109688;1250;59895;-76
2024/04/09 02:42:02;;;;;;;7.20;6.20;;;;;;;11.53;100.00;98581.57;109669;1249;60134;-77
2024/04/09 02:44:32;;;;;;;8.80;5.30;;;;;;;11.48;100.00;98576.48;109683;1250;59814;-78
2024/04/09 02:46:59;;;;;;;7.60;5.30;;;;;;;11.41;100.00;98574.26;109700;1250;64108;-76
2024/04/09 02:49:26;;;;;;;7.70;6.00;;;;;;;11.36;100.00;98574.48;109626;1249;60117;-78
2024/04/09 02:51:52;;;;;;;7.20;5.40;;;;;;;11.34;100.00;98576.09;109687;1250;59752;-77
2024/04/09 02:54:18;;;;;;;9.80;6.50;;;;;;;11.30;100.00;98575.87;109699;1249;59904;-77
2024/04/09 02:56:45;;;;;;;9.90;6.70;;;;;;;11.28;100.00;98581.00;109640;1249;59805;-77
2024/04/09 02:59:11;;;;;;;8.60;6.20;;;;;;;11.26;100.00;98581.67;109653;1250;59906;-76
2024/04/09 03:01:38;;;;;;;10.70;6.10;;;;;;;11.24;100.00;98579.70;109502;1253;59946;-77
2024/04/09 03:04:04;;;;;;;8.90;7.60;;;;;;;11.21;100.00;98577.20;109689;1249;59709;-77
2024/04/09 03:06:30;;;;;;;9.90;7.80;;;;;;;11.20;100.00;98576.44;109660;1249;59813;-78
2024/04/09 03:08:58;;;;;;;10.10;6.30;;;;;;;11.19;100.00;98575.42;109709;1249;60095;-78
2024/04/09 03:11:24;;;;;;;9.60;7.20;;;;;;;11.17;100.00;98574.35;109657;1249;64122;-78
2024/04/09 03:13:51;;;;;;;11.00;6.90;;;;;;;11.15;100.00;98574.48;109665;1249;60100;-78
2024/04/09 03:16:22;;;;;;;8.70;6.40;;;;;;;11.14;100.00;98576.92;109669;1250;59760;-77
2024/04/09 03:18:55;;;;;;;6.60;6.00;;;;;;;11.11;100.00;98579.41;109710;1250;65671;-77
2024/04/09 03:21:21;;;;;;;8.90;6.80;;;;;;;11.08;100.00;98573.42;109699;1250;61220;-77
2024/04/09 03:23:47;;;;;;;8.90;5.90;;;;;;;11.04;100.00;98575.93;109725;1250;59856;-78
2024/04/09 03:26:14;;;;;;;9.30;6.80;;;;;;;10.97;100.00;98580.11;109369;1250;59784;-77
2024/04/09 03:28:44;;;;;;;10.40;7.70;;;;;;;10.93;100.00;98582.77;109665;1250;59851;-78
2024/04/09 03:31:10;;;;;;;10.80;6.50;;;;;;;10.89;100.00;98583.74;109660;1250;66837;-77
2024/04/09 03:33:37;;;;;;;8.70;7.10;;;;;;;10.87;100.00;98587.82;109680;1249;59898;-77
2024/04/09 03:36:05;;;;;;;10.10;6.50;;;;;;;10.85;100.00;98584.39;109643;1250;64080;-77
2024/04/09 03:38:31;;;;;;;12.40;6.70;;;;;;;10.82;100.00;98581.11;109660;1250;59729;-78
2024/04/09 03:41:01;;;;;;;11.30;7.30;;;;;;;10.78;100.00;98581.56;109630;1250;61537;-78
2024/04/09 03:43:28;;;;;;;10.90;7.30;;;;;;;10.78;100.00;98584.04;109677;1250;65703;-77
2024/04/09 03:46:03;;;;;;;10.70;7.50;;;;;;;10.81;100.00;98582.39;109662;1250;59776;-78
2024/04/09 03:48:29;;;;;;;8.50;7.10;;;;;;;10.83;100.00;98582.65;109668;1250;70990;-77
2024/04/09 03:50:57;;;;;;;11.90;7.90;;;;;;;10.83;100.00;98584.96;109646;1250;59797;-76
2024/04/09 03:53:24;;;;;;;13.80;8.20;;;;;;;10.82;100.00;98581.80;109726;1250;59885;-78
2024/04/09 03:55:57;;;;;;;10.50;7.70;;;;;;;10.82;100.00;98585.70;109649;1250;60588;-77
2024/04/09 03:58:27;;;;;;;10.80;7.90;;;;;;;10.84;100.00;98582.54;109490;1250;59912;-77
2024/04/09 04:00:58;;;;;;;13.80;9.60;;;;;;;10.85;100.00;98579.98;109648;1250;64069;-78
2024/04/09 04:03:29;;;;;;;13.50;9.50;;;;;;;10.87;100.00;98576.96;109525;1251;59753;-78
2024/04/09 04:05:57;;;;;;;15.90;8.90;;;;;;;10.89;100.00;98581.98;109675;1249;60128;-76
2024/04/09 04:08:27;;;;;;;10.10;8.50;;;;;;;10.90;100.00;98582.06;109692;1250;65889;-78
2024/04/09 04:10:58;;;;;;;12.60;9.00;;;;;;;10.91;100.00;98576.83;109721;1249;60218;-78
2024/04/09 04:13:27;;;;;;;13.30;8.40;;;;;;;10.92;100.00;98576.20;109671;1250;62876;-78
2024/04/09 04:16:06;;;;;;;11.90;8.10;;;;;;;10.95;100.00;98573.01;109675;1249;59812;-76
2024/04/09 04:18:37;;;;;;;13.00;9.00;;;;;;;10.98;100.00;98571.02;109657;1249;59853;-77
2024/04/09 04:21:05;;;;;;;9.10;8.10;;;;;;;11.02;100.00;98573.56;109672;1250;65712;-77
2024/04/09 04:23:31;;;;;;;10.10;9.00;;;;;;;11.05;100.00;98576.12;109546;1251;60094;-77
2024/04/09 04:26:03;;;;;;;9.70;8.40;;;;;;;11.10;100.00;98572.19;109608;1250;63993;-77
2024/04/09 04:28:31;;;;;;;10.80;8.80;;;;;;;11.16;100.00;98570.70;109503;1251;60065;-78
2024/04/09 04:30:58;;;;;;;12.00;7.80;;;;;;;11.26;100.00;98570.11;109643;1250;59761;-77
2024/04/09 04:33:25;;;;;;;15.00;7.70;;;;;;;11.38;100.00;98576.48;109711;1250;66692;-77
2024/04/09 04:35:52;;;;;;;11.80;6.90;;;;;;;11.47;100.00;98569.89;109666;1249;61353;-75
2024/04/09 04:38:19;;;;;;;8.10;7.00;;;;;;;11.56;100.00;98569.21;109608;1249;63864;-77
2024/04/09 04:40:46;;;;;;;13.00;9.80;;;;;;;11.67;100.00;98572.27;109673;1249;59845;-78
2024/04/09 04:43:16;;;;;;;12.80;8.30;;;;;;;11.88;100.00;98569.23;109684;1250;59630;-77
2024/04/09 04:45:42;;;;;;;;;;;;;;;12.21;100.00;98569.29;109684;1250;68007;-78
2024/04/09 04:48:10;;;;;;;12.00;7.30;;;;;;;12.42;100.00;98567.25;109671;1250;60088;-79
2024/04/09 04:50:37;;;;;;;9.80;8.30;;;;;;;12.71;100.00;98572.00;109646;1250;63967;-77
2024/04/09 04:53:04;;;;;;;10.30;7.60;;;;;;;13.03;100.00;98569.35;109294;1250;59865;-78
2024/04/09 04:55:32;;;;;;;10.80;7.30;;;;;;;13.38;100.00;98568.67;109655;1250;59956;-77
2024/04/09 04:58:00;;;;;;;11.20;8.30;;;;;;;13.99;100.00;98573.39;109673;1250;66671;-78
2024/04/09 05:00:27;;;;;;;9.00;7.20;;;;;;;14.47;100.00;98571.52;109699;1249;60625;-78
2024/04/09 05:02:54;;;;;;;11.60;7.70;;;;;;;14.68;100.00;98572.66;109352;1249;64102;-78
2024/04/09 05:05:20;;;;;;;13.20;8.00;;;;;;;14.77;100.00;98573.88;109614;1250;59796;-78
2024/04/09 05:07:50;;;;;;;12.90;7.30;;;;;;;14.93;100.00;98569.30;109664;1250;60021;-78
2024/04/09 05:10:19;;;;;;;8.80;5.90;;;;;;;15.12;100.00;98565.46;109672;1250;66605;-78
2024/04/09 05:12:47;;;;;;;8.10;6.30;;;;;;;15.34;100.00;98562.27;109533;1250;60113;-79
2024/04/09 05:15:14;;;;;;;7.60;5.70;;;;;;;15.60;100.00;98561.30;109717;1250;64122;-78
2024/04/09 05:17:41;;;;;;;8.50;6.10;;;;;;;15.65;100.00;98560.84;109676;1250;59833;-77
2024/04/09 05:20:11;;;;;;;13.10;6.80;;;;;;;15.59;100.00;98557.84;109770;1249;59656;-78
2024/04/09 05:22:38;;;;;;;9.80;6.30;;;;;;;15.55;100.00;98554.80;109763;1250;66879;-78
2024/04/09 05:25:05;;;;;;;10.80;6.10;;;;;;;15.54;100.00;98555.08;109833;1250;59761;-79
2024/04/09 05:27:32;;;;;;;9.10;6.50;;;;;;;15.55;100.00;98558.71;109457;1249;62511;-77
2024/04/09 05:29:59;;;;;;;9.40;6.10;;;;;;;15.56;100.00;98558.79;109717;1250;60132;-79
2024/04/09 05:32:28;;;;;;;8.70;7.80;;;;;;;15.55;100.00;98562.96;109491;1250;59773;-79
2024/04/09 05:34:55;;;;;;;11.40;5.90;;;;;;;15.55;100.00;98563.73;109660;1249;65295;-77
2024/04/09 05:37:22;;;;;;;9.70;5.60;;;;;;;15.60;100.00;98559.17;109716;1249;60357;-76
2024/04/09 05:39:48;;;;;;;14.50;6.00;;;;;;;15.78;100.00;98561.79;109704;1250;64055;-79
2024/04/09 05:42:15;;;;;;;9.60;6.00;;;;;;;16.15;100.00;98563.45;109700;1250;59994;-79
2024/04/09 05:44:42;;;;;;;8.20;5.30;;;;;;;16.47;100.00;98564.79;109674;1250;59846;-78
2024/04/09 05:47:08;;;;;;;6.10;4.90;;;;;;;16.61;100.00;98561.41;109686;1250;65315;-78
2024/04/09 05:49:35;;;;;;;8.80;5.00;;;;;;;16.72;99.50;98561.07;109700;1250;59769;-78
2024/04/09 05:52:02;;;;;;;9.30;5.40;;;;;;;16.88;98.11;98560.34;109664;1250;63387;-79
2024/04/09 05:54:28;;;;;;;6.10;4.90;;;;;;;17.08;97.46;98556.99;109667;1249;59884;-78
2024/04/09 05:56:55;;;;;;;8.10;5.40;;;;;;;17.30;96.40;98556.73;109670;1249;59826;-79
2024/04/09 05:59:22;;;;;;;11.70;5.50;;;;;;;17.50;94.33;98552.17;109710;1250;66744;-78
2024/04/09 06:01:50;;;;;;;7.80;5.40;;;;;;;17.63;93.20;98554.62;109700;1250;60172;-77
2024/04/09 06:04:17;;;;;;;8.20;4.20;;;;;;;17.72;91.37;98553.98;109402;1249;62621;-77
2024/04/09 06:06:43;;;;;;;8.80;4.50;;;;;;;17.71;90.00;98551.03;109686;1250;59842;-78
2024/04/09 06:09:10;;;;;;;10.20;4.90;;;;;;;17.68;89.81;98551.52;109701;1250;59689;-76
2024/04/09 06:11:36;;;;;;;5.30;4.30;;;;;;;17.65;88.48;98551.52;109671;1250;59855;-78
2024/04/09 06:14:03;;;;;;;7.40;4.40;;;;;;;17.62;88.02;98549.19;109706;1249;59842;-78
2024/04/09 06:16:29;;;;;;;6.50;4.20;;;;;;;17.61;87.64;98549.82;109689;1250;59851;-78
2024/04/09 06:18:55;;;;;;;7.00;4.50;;;;;;;17.55;87.00;98550.02;109655;1250;59759;-78
2024/04/09 06:21:22;;;;;;;5.30;3.90;;;;;;;17.46;86.18;98546.86;109393;1250;59941;-78
2024/04/09 06:23:48;;;;;;;7.20;3.80;;;;;;;17.37;86.79;98543.05;109678;1250;60452;-77
2024/04/09 06:26:18;;;;;;;8.60;4.20;;;;;;;17.38;86.39;98542.59;109665;1250;59898;-77
2024/04/09 06:28:45;;;;;;;8.50;4.20;;;;;;;17.46;86.27;98542.13;109639;1250;64130;-78
2024/04/09 06:31:11;;;;;;;7.10;4.30;;;;;;;17.65;85.59;98537.83;109659;1250;60271;-79
2024/04/09 06:33:37;;;;;;;8.20;4.60;;;;;;;17.87;84.38;98535.92;109719;1250;59831;-79
2024/04/09 06:36:04;;;;;;;5.40;4.30;;;;;;;18.07;83.93;98533.54;109690;1251;59843;-78
2024/04/09 06:38:31;;;;;;;8.50;3.70;;;;;;;18.23;83.21;98536.44;109683;1249;59718;-78
2024/04/09 06:40:57;;;;;;;7.50;3.90;;;;;;;18.31;82.29;98538.83;109670;1250;59766;-78
2024/04/09 06:43:23;;;;;;;6.20;4.00;;;;;;;18.31;81.44;98540.54;109667;1250;59834;-79
2024/04/09 06:45:49;;;;;;;8.90;4.00;;;;;;;18.23;81.70;98536.64;109695;1250;59750;-77
2024/04/09 06:48:16;;;;;;;7.10;3.80;;;;;;;18.17;81.96;98536.74;109674;1250;60170;-78
2024/04/09 06:50:43;;;;;;;9.10;4.30;;;;;;;18.12;82.08;98534.06;109670;1250;60238;-78
2024/04/09 06:53:10;;;;;;;6.40;3.60;;;;;;;18.10;82.14;98531.52;109664;1250;64118;-79
2024/04/09 06:55:37;;;;;;;6.10;4.40;;;;;;;18.11;81.78;98529.48;109649;1250;59847;-79
2024/04/09 06:58:03;;;;;;;4.50;3.70;;;;;;;18.16;81.66;98530.00;109690;1250;59775;-79
2024/04/09 07:00:29;;;;;;;5.20;3.90;;;;;;;18.17;81.60;98527.42;109696;1250;59759;-79
2024/04/09 07:02:57;;;;;;;7.40;4.50;;;;;;;18.20;81.67;98528.90;109657;1249;59851;-78
2024/04/09 07:05:24;;;;;;;7.70;4.90;;;;;;;18.29;80.89;98528.26;109652;1250;63735;-79
2024/04/09 07:07:50;;;;;;;6.40;5.50;;;;;;;18.28;80.33;98522.66;109659;1250;60078;-78
2024/04/09 07:10:16;;;;;;;6.30;5.30;;;;;;;18.31;80.48;98520.71;109696;1250;59841;-78
2024/04/09 07:12:44;;;;;;;8.70;5.60;;;;;;;18.42;80.59;98517.94;109666;1250;60123;-78
2024/04/09 07:15:11;;;;;;;7.50;5.60;;;;;;;18.57;81.08;98517.58;109430;1250;60247;-79
2024/04/09 07:17:37;;;;;;;8.50;5.70;;;;;;;18.72;80.98;98517.39;109685;1250;59872;-78
2024/04/09 07:20:04;;;;;;;6.70;4.70;;;;;;;18.89;80.38;98514.12;109696;1250;59783;-79
2024/04/09 07:22:30;;;;;;;5.70;4.50;;;;;;;19.05;78.53;98511.88;109649;1250;59764;-77
2024/04/09 07:24:56;;;;;;;6.70;3.40;;;;;;;19.20;76.91;98511.63;109699;1253;59841;-79
2024/04/09 07:27:23;;;;;;;5.30;3.50;;;;;;;19.32;75.51;98510.89;109687;1250;59829;-79
2024/04/09 07:29:49;;;;;;;5.50;3.50;;;;;;;19.42;74.74;98506.81;109659;1250;59841;-79
2024/04/09 07:32:16;;;;;;;6.30;3.00;;;;;;;19.57;74.54;98503.75;109699;1249;59817;-79
2024/04/09 07:34:43;;;;;;;6.90;3.20;;;;;;;19.70;73.80;98502.60;109691;1250;60015;-78
2024/04/09 07:37:09;;;;;;;4.10;2.80;;;;;;;19.83;73.08;98501.85;109690;1250;66902;-80
2024/04/09 07:39:36;;;;;;;4.60;2.90;;;;;;;19.96;72.40;98504.29;109655;1250;59757;-80
2024/04/09 07:42:02;;;;;;;3.80;3.10;;;;;;;20.06;72.55;98504.48;109709;1250;59790;-78
2024/04/09 07:44:28;;;;;;;4.40;3.20;;;;;;;20.16;72.04;98500.65;109655;1251;60061;-80
2024/04/09 07:46:55;;;;;;;6.00;3.50;;;;;;;20.28;72.09;98495.89;109683;1250;59795;-81
2024/04/09 07:49:21;;;;;;;7.90;3.70;;;;;;;20.39;71.56;98497.09;109678;1253;59938;-79
2024/04/09 07:51:47;;;;;;;4.10;3.00;;;;;;;20.52;71.57;98496.64;109645;1250;59908;-78
2024/04/09 07:54:14;;;;;;;5.10;2.70;;;;;;;20.63;71.32;98497.41;109677;1251;59870;-77
2024/04/09 07:56:40;;;;;;;3.50;2.60;;;;;;;20.72;70.98;98501.24;109695;1250;59911;-79
2024/04/09 07:59:06;;;;;;;4.10;2.90;;;;;;;20.87;70.32;98497.56;109710;1249;59827;-79
2024/04/09 08:01:33;;;;;;;2.80;2.60;;;;;;;21.01;68.54;98494.56;109685;1251;59789;-79
2024/04/09 08:03:59;;;;;;;3.40;2.20;;;;;;;21.15;68.26;98496.14;109732;1250;59830;-80
2024/04/09 08:06:28;;;;;;;4.40;2.40;;;;;;;21.30;67.35;98495.14;109672;1250;59840;-79
2024/04/09 08:08:54;;;;;;;3.40;2.40;;;;;;;21.40;66.67;98496.45;109691;1250;59862;-80
2024/04/09 08:11:21;;;;;;;4.60;2.60;;;;;;;21.53;67.00;98494.81;109767;1250;59926;-79
2024/04/09 08:13:48;;;;;;;3.70;2.80;;;;;;;21.65;66.78;98493.41;109731;1250;65616;-79
2024/04/09 08:16:15;;;;;;;5.30;2.60;;;;;;;21.77;66.15;98492.77;109702;1250;59834;-78
2024/04/09 08:18:41;;;;;;;7.30;3.30;;;;;;;21.88;66.01;98494.50;109638;1250;64614;-79
2024/04/09 08:21:10;;;;;;;4.80;3.30;;;;;;;21.96;65.64;98490.60;109644;1250;59728;-81
2024/04/09 08:23:36;;;;;;;2.90;2.40;;;;;;;21.96;64.63;98492.27;109674;1250;59966;-82
2024/04/09 08:26:03;;;;;;;6.00;3.90;;;;;;;21.97;64.43;98489.08;109574;1250;139791;-80
2024/04/09 08:28:29;;;;;;;9.10;3.30;;;;;;;22.06;64.50;98485.27;109669;1251;59779;-80
2024/04/09 08:30:55;;;;;;;6.80;3.60;;;;;;;22.19;63.54;98481.70;109648;1250;59792;-80
2024/04/09 08:33:22;;;;;;;5.30;2.90;;;;;;;22.25;62.38;98477.62;109425;1250;59892;-78
2024/04/09 08:35:49;;;;;;;6.00;3.70;;;;;;;22.32;62.45;98477.31;109650;1250;59892;-79
2024/04/09 08:38:21;;;;;;;6.80;3.20;;;;;;;22.43;61.94;98473.39;109677;1251;66905;-79
2024/04/09 08:40:48;;;;;;;5.50;3.30;;;;;;;22.54;62.05;98475.19;109699;1250;60170;-79
2024/04/09 08:43:16;;;;;;;3.30;2.50;;;;;;;22.61;60.44;98475.69;109620;1250;62493;-79
2024/04/09 08:45:43;;;;;;;6.60;2.20;;;;;;;22.65;59.43;98473.42;109539;1250;60013;-78
2024/04/09 08:48:11;;;;;;;5.80;2.90;;;;;;;22.70;58.41;98468.84;109653;1250;59872;-78
2024/04/09 08:50:38;;;;;;;5.30;2.40;;;;;;;22.79;58.67;98465.67;109672;1251;66586;-79
2024/04/09 08:53:05;;;;;;;3.00;2.50;;;;;;;22.89;58.25;98465.30;109717;1251;59986;-79
2024/04/09 08:55:33;;;;;;;3.10;2.50;;;;;;;23.03;58.63;98461.07;109662;1251;63991;-80
2024/04/09 08:57:59;;;;;;;4.50;2.80;;;;;;;23.18;58.73;98461.66;109646;1251;59756;-80
2024/04/09 09:00:26;;;;;;;5.20;3.40;;;;;;;23.33;58.70;98459.60;109654;1250;59973;-80
2024/04/09 09:02:52;;;;;;;6.40;2.30;;;;;;;23.46;57.45;98456.02;109628;1251;59846;-78
2024/04/09 09:05:21;;;;;;;5.10;2.80;;;;;;;23.56;56.81;98450.27;109673;1253;61415;-80
2024/04/09 09:07:58;;;;;;;7.00;3.00;;;;;;;23.69;57.09;98449.14;109654;1250;65304;-79
2024/04/09 09:10:24;;;;;;;5.50;2.50;;;;;;;23.83;57.11;98449.50;109633;1250;60239;-79
2024/04/09 09:13:02;;;;;;;3.80;2.50;;;;;;;23.95;55.25;98448.05;109666;1250;60136;-80
2024/04/09 09:15:29;;;;;;;3.80;2.50;;;;;;;24.11;54.99;98445.02;109660;1251;65843;-79
2024/04/09 09:17:56;;;;;;;5.60;3.00;;;;;;;24.29;55.64;98445.39;109407;1251;60661;-78
2024/04/09 09:20:23;;;;;;;3.80;2.30;;;;;;;24.40;54.52;98447.02;109651;1250;62777;-80
2024/04/09 09:22:54;;;;;;;3.20;2.30;;;;;;;24.49;54.15;98445.64;109653;1250;59860;-80
2024/04/09 09:25:22;;;;;;;3.10;2.30;;;;;;;24.63;54.20;98445.09;109579;1250;59785;-80
2024/04/09 09:28:01;;;;;;;3.80;2.50;;;;;;;24.75;53.33;98441.76;109661;1250;66823;-80
2024/04/09 09:30:37;;;;;;;3.00;2.70;;;;;;;24.84;52.98;98435.32;109699;1250;59926;-81
2024/04/09 09:33:05;;;;;;;6.00;2.90;;;;;;;24.91;52.87;98437.88;109655;1250;72582;-83
2024/04/09 09:35:35;;;;;;;3.80;2.60;;;;;;;25.02;52.31;98437.34;109668;1250;59864;-81
2024/04/09 09:38:03;;;;;;;;;;;;;;;25.14;52.78;98434.25;109684;1249;59765;-81
2024/04/09 09:40:30;;;;;;;4.90;2.30;;;;;;;25.30;53.27;98429.27;109712;1249;67008;-82
2024/04/09 09:42:57;;;;;;;2.60;2.30;;;;;;;25.41;51.95;98427.23;109681;1250;60265;-82
2024/04/09 09:45:24;;;;;;;3.50;1.80;;;;;;;25.48;51.04;98420.44;109507;1250;65365;-81
2024/04/09 09:47:53;;;;;;;4.30;2.60;;;;;;;25.54;50.25;98415.26;109725;1250;59856;-82
2024/04/09 09:50:20;;;;;;;3.60;1.90;;;;;;;25.60;50.17;98413.64;109693;1250;59816;-82
2024/04/09 09:52:48;;;;;;;7.20;2.60;;;;;;;25.70;49.75;98410.09;109708;1250;66678;-83
2024/04/09 09:55:15;;;;;;;4.00;1.60;;;;;;;25.78;48.98;98412.97;109745;1250;59791;-82
2024/04/09 09:57:44;;;;;;;2.70;1.70;;;;;;;25.79;47.99;98410.06;109633;1250;64044;-82
2024/04/09 10:00:14;;;;;;;6.10;2.00;;;;;;;25.85;48.44;98405.95;109660;1250;59823;-82
2024/04/09 10:02:43;;;;;;;3.90;2.00;;;;;;;25.95;48.28;98402.77;109433;1250;59851;-82
2024/04/09 10:05:14;;;;;;;3.10;1.70;;;;;;;26.05;47.26;98398.27;109703;1250;66623;-83
2024/04/09 10:07:43;;;;;;;3.90;2.00;;;;;;;26.15;47.48;98396.84;109657;1250;59810;-83
2024/04/09 10:10:09;;;;;;;3.80;2.10;;;;;;;26.21;46.93;98395.21;109686;1251;62825;-82
2024/04/09 10:12:36;;;;;;;2.50;1.60;;;;;;;26.27;46.81;98394.01;109657;1250;59806;-82
2024/04/09 10:15:16;;;;;;;4.50;1.80;;;;;;;26.33;46.44;98392.46;109746;1250;59684;-82
2024/04/09 10:17:50;;;;;;;3.50;1.70;;;;;;;26.36;45.63;98394.59;109787;1250;65552;-82
2024/04/09 10:20:21;;;;;;;3.70;1.70;;;;;;;26.37;45.52;98395.05;109799;1250;60184;-82
2024/04/09 10:22:51;;;;;;;3.00;1.80;;;;;;;26.40;45.83;98393.92;109805;1250;64056;-82
2024/04/09 10:25:22;;;;;;;4.20;1.90;;;;;;;26.49;45.93;98391.99;109817;1250;59424;-81
2024/04/09 10:28:01;;;;;;;3.20;2.30;;;;;;;26.56;46.19;98385.38;109783;1250;59770;-80
2024/04/09 10:30:31;;;;;;;3.80;2.00;;;;;;;26.64;47.12;98381.48;109837;1250;66939;-82
2024/04/09 10:33:01;;;;;;;6.40;1.90;;;;;;;26.74;47.77;98382.80;109577;1251;59814;-81
2024/04/09 10:35:28;;;;;;;3.70;1.90;;;;;;;26.84;47.54;98378.77;109770;1249;62411;-82
2024/04/09 10:37:56;;;;;;;4.70;1.60;;;;;;;26.88;46.47;98372.69;109795;1250;59768;-81
2024/04/09 10:40:23;;;;;;;3.20;2.00;;;;;;;26.93;46.73;98372.23;109701;1250;59872;-82
2024/04/09 10:42:52;;;;;;;4.50;1.70;;;;;;;26.97;46.74;98373.16;109694;1249;65282;-80
2024/04/09 10:45:19;;;;;;;3.90;1.90;;;;;;;27.02;47.02;98371.80;109791;1249;60307;-82
2024/04/09 10:47:45;;;;;;;6.70;3.30;;;;;;;27.10;46.46;98371.87;109801;1250;63692;-83
2024/04/09 10:50:14;;;;;;;4.30;2.40;;;;;;;27.15;45.35;98366.60;109737;1251;59855;-82
2024/04/09 10:52:41;;;;;;;3.60;1.90;;;;;;;27.21;45.08;98363.36;109946;1250;59070;-81
2024/04/09 10:55:13;;;;;;;2.40;1.60;;;;;;;27.26;44.59;98356.04;109723;1250;66831;-81
2024/04/09 10:57:40;;;;;;;3.50;1.30;;;;;;;27.30;44.52;98355.16;109615;1250;60259;-82
2024/04/09 11:00:10;;;;;;;3.80;1.70;;;;;;;27.33;43.80;98356.05;109772;1250;63734;-83
2024/04/09 11:02:41;;;;;;;3.10;1.70;;;;;;;27.33;42.40;98356.02;109613;1250;59801;-84
2024/04/09 11:05:11;;;;;;;6.20;2.00;;;;;;;27.31;42.39;98352.50;109788;1250;59961;-87
2024/04/09 11:07:42;;;;;;;3.10;1.70;;;;;;;27.31;42.17;98351.03;109632;1249;66822;-86
2024/04/09 11:10:13;;;;;;;4.30;1.80;;;;;;;27.31;41.29;98349.30;109710;1250;59838;-87
2024/04/09 11:12:52;;;;;;;3.60;1.70;;;;;;;27.32;41.34;98342.55;109799;1251;62850;-86
2024/04/09 11:15:20;;;;;;;3.20;1.30;;;;;;;27.30;40.85;98341.89;109730;1250;60049;-86
2024/04/09 11:17:47;;;;;;;3.40;1.70;;;;;;;27.29;41.07;98339.93;109741;1249;59815;-86
2024/04/09 11:20:15;;;;;;;5.10;1.50;;;;;;;27.31;40.98;98335.40;109690;1250;66529;-87
2024/04/09 11:22:42;;;;;;;3.40;1.30;;;;;;;27.39;41.01;98331.19;109693;1251;59890;-87
2024/04/09 11:25:13;;;;;;;5.00;1.30;;;;;;;27.43;40.97;98325.67;109688;1249;63796;-86